Terminal Aerodrome Forecast
Issued by NWS Lake Charles, LA

Home | Current Version | Previous Version | Text Only | Print | Product List | Glossary On
Versions: 1 2 3 4 5 6 7 8 9 10 11
108
FTUS44 KLCH 270520
TAFARA
TAF
KARA 270520Z 2706/2806 32010KT P6SM SCT040
     FM271000 02008KT P6SM SKC
     FM271700 07010KT P6SM SKC
     FM272200 12008KT P6SM SKC=

USA.gov is the U.S. government's official web portal to all federal, state and local government web resources and services.